sensor_id;sensor_type;location;lat;lon;timestamp;temperature;humidity
67868;SHT31;54672;46.096;14.470;2022-07-06T00:00:25;18.01;91.17
67868;SHT31;54672;46.096;14.470;2022-07-06T00:02:51;18.01;90.87
67868;SHT31;54672;46.096;14.470;2022-07-06T00:05:17;18.01;91.07
67868;SHT31;54672;46.096;14.470;2022-07-06T00:07:42;17.99;90.92
67868;SHT31;54672;46.096;14.470;2022-07-06T00:10:07;17.96;90.86
67868;SHT31;54672;46.096;14.470;2022-07-06T00:12:33;17.95;90.77
67868;SHT31;54672;46.096;14.470;2022-07-06T00:14:58;17.99;90.33
67868;SHT31;54672;46.096;14.470;2022-07-06T00:17:24;17.95;90.76
67868;SHT31;54672;46.096;14.470;2022-07-06T00:19:49;17.95;91.00
67868;SHT31;54672;46.096;14.470;2022-07-06T00:22:15;17.88;90.66
67868;SHT31;54672;46.096;14.470;2022-07-06T00:24:40;17.85;91.11
67868;SHT31;54672;46.096;14.470;2022-07-06T00:27:06;17.91;91.02
67868;SHT31;54672;46.096;14.470;2022-07-06T00:29:31;17.93;90.64
67868;SHT31;54672;46.096;14.470;2022-07-06T00:31:57;17.95;90.84
67868;SHT31;54672;46.096;14.470;2022-07-06T00:34:23;17.99;91.07
67868;SHT31;54672;46.096;14.470;2022-07-06T00:36:48;17.99;90.99
67868;SHT31;54672;46.096;14.470;2022-07-06T00:39:14;17.98;91.00
67868;SHT31;54672;46.096;14.470;2022-07-06T00:41:39;18.01;90.88
67868;SHT31;54672;46.096;14.470;2022-07-06T00:44:07;17.98;90.88
67868;SHT31;54672;46.096;14.470;2022-07-06T00:46:34;17.96;91.18
67868;SHT31;54672;46.096;14.470;2022-07-06T00:49:00;17.93;91.27
67868;SHT31;54672;46.096;14.470;2022-07-06T00:51:28;17.93;91.19
67868;SHT31;54672;46.096;14.470;2022-07-06T00:53:57;17.98;89.86
67868;SHT31;54672;46.096;14.470;2022-07-06T00:56:23;17.98;89.51
67868;SHT31;54672;46.096;14.470;2022-07-06T00:58:49;17.92;90.24
67868;SHT31;54672;46.096;14.470;2022-07-06T01:01:14;17.93;90.58
67868;SHT31;54672;46.096;14.470;2022-07-06T01:03:40;17.95;90.75
67868;SHT31;54672;46.096;14.470;2022-07-06T01:06:05;17.93;90.99
67868;SHT31;54672;46.096;14.470;2022-07-06T01:08:31;17.93;91.21
67868;SHT31;54672;46.096;14.470;2022-07-06T01:10:57;17.95;91.23
67868;SHT31;54672;46.096;14.470;2022-07-06T01:13:22;18.01;90.67
67868;SHT31;54672;46.096;14.470;2022-07-06T01:15:49;17.98;90.91
67868;SHT31;54672;46.096;14.470;2022-07-06T01:18:14;18.01;90.79
67868;SHT31;54672;46.096;14.470;2022-07-06T01:20:40;17.98;91.97
67868;SHT31;54672;46.096;14.470;2022-07-06T01:23:06;17.95;92.14
67868;SHT31;54672;46.096;14.470;2022-07-06T01:25:31;17.91;93.01
67868;SHT31;54672;46.096;14.470;2022-07-06T01:27:57;17.91;93.07
67868;SHT31;54672;46.096;14.470;2022-07-06T01:30:23;17.89;93.38
67868;SHT31;54672;46.096;14.470;2022-07-06T01:32:48;17.93;92.71
67868;SHT31;54672;46.096;14.470;2022-07-06T01:35:15;17.88;92.07
67868;SHT31;54672;46.096;14.470;2022-07-06T01:37:41;17.92;93.33
67868;SHT31;54672;46.096;14.470;2022-07-06T01:40:09;17.93;93.77
67868;SHT31;54672;46.096;14.470;2022-07-06T01:42:36;17.86;93.87
67868;SHT31;54672;46.096;14.470;2022-07-06T01:45:03;17.82;93.55
67868;SHT31;54672;46.096;14.470;2022-07-06T01:47:28;17.77;93.02
67868;SHT31;54672;46.096;14.470;2022-07-06T01:49:55;17.78;92.79
67868;SHT31;54672;46.096;14.470;2022-07-06T01:52:22;17.77;92.97
67868;SHT31;54672;46.096;14.470;2022-07-06T01:54:48;17.67;92.67
67868;SHT31;54672;46.096;14.470;2022-07-06T01:57:13;17.68;92.40
67868;SHT31;54672;46.096;14.470;2022-07-06T01:59:39;17.58;92.67
67868;SHT31;54672;46.096;14.470;2022-07-06T02:02:04;17.51;93.02
67868;SHT31;54672;46.096;14.470;2022-07-06T02:04:30;17.50;93.90
67868;SHT31;54672;46.096;14.470;2022-07-06T02:06:55;17.45;93.56
67868;SHT31;54672;46.096;14.470;2022-07-06T02:09:21;17.43;93.96
67868;SHT31;54672;46.096;14.470;2022-07-06T02:11:46;17.50;94.05
67868;SHT31;54672;46.096;14.470;2022-07-06T02:14:12;17.50;94.00
67868;SHT31;54672;46.096;14.470;2022-07-06T02:16:37;17.50;93.86
67868;SHT31;54672;46.096;14.470;2022-07-06T02:19:02;17.51;94.19
67868;SHT31;54672;46.096;14.470;2022-07-06T02:21:28;17.51;94.28
67868;SHT31;54672;46.096;14.470;2022-07-06T02:23:54;17.45;93.31
67868;SHT31;54672;46.096;14.470;2022-07-06T02:26:19;17.41;93.71
67868;SHT31;54672;46.096;14.470;2022-07-06T02:28:45;17.43;94.11
67868;SHT31;54672;46.096;14.470;2022-07-06T02:31:14;17.43;94.60
67868;SHT31;54672;46.096;14.470;2022-07-06T02:33:40;17.44;94.87
67868;SHT31;54672;46.096;14.470;2022-07-06T02:36:06;17.44;94.97
67868;SHT31;54672;46.096;14.470;2022-07-06T02:38:31;17.40;95.10
67868;SHT31;54672;46.096;14.470;2022-07-06T02:40:57;17.43;95.18
67868;SHT31;54672;46.096;14.470;2022-07-06T02:43:22;17.48;95.08
67868;SHT31;54672;46.096;14.470;2022-07-06T02:45:48;17.48;92.39
67868;SHT31;54672;46.096;14.470;2022-07-06T02:48:13;17.51;92.47
67868;SHT31;54672;46.096;14.470;2022-07-06T02:50:39;17.54;93.92
67868;SHT31;54672;46.096;14.470;2022-07-06T02:53:04;17.57;94.81
67868;SHT31;54672;46.096;14.470;2022-07-06T02:55:30;17.53;94.75
67868;SHT31;54672;46.096;14.470;2022-07-06T02:57:55;17.51;94.89
67868;SHT31;54672;46.096;14.470;2022-07-06T03:00:21;17.47;94.71
67868;SHT31;54672;46.096;14.470;2022-07-06T03:02:46;17.47;94.72
67868;SHT31;54672;46.096;14.470;2022-07-06T03:05:11;17.43;94.86
67868;SHT31;54672;46.096;14.470;2022-07-06T03:07:37;17.43;94.70
67868;SHT31;54672;46.096;14.470;2022-07-06T03:10:03;17.38;94.54
67868;SHT31;54672;46.096;14.470;2022-07-06T03:12:29;17.28;93.18
67868;SHT31;54672;46.096;14.470;2022-07-06T03:14:54;17.24;93.14
67868;SHT31;54672;46.096;14.470;2022-07-06T03:17:20;17.22;92.94
67868;SHT31;54672;46.096;14.470;2022-07-06T03:19:46;17.17;93.16
67868;SHT31;54672;46.096;14.470;2022-07-06T03:22:12;17.19;93.69
67868;SHT31;54672;46.096;14.470;2022-07-06T03:24:37;17.20;94.15
67868;SHT31;54672;46.096;14.470;2022-07-06T03:27:03;17.19;94.45
67868;SHT31;54672;46.096;14.470;2022-07-06T03:29:28;17.19;94.73
67868;SHT31;54672;46.096;14.470;2022-07-06T03:31:54;17.26;94.43
67868;SHT31;54672;46.096;14.470;2022-07-06T03:34:19;17.38;94.64
67868;SHT31;54672;46.096;14.470;2022-07-06T03:36:45;17.81;93.49
67868;SHT31;54672;46.096;14.470;2022-07-06T03:39:10;18.37;92.49
67868;SHT31;54672;46.096;14.470;2022-07-06T03:41:35;18.70;89.41
67868;SHT31;54672;46.096;14.470;2022-07-06T03:44:01;18.83;88.77
67868;SHT31;54672;46.096;14.470;2022-07-06T03:46:27;19.08;88.29
67868;SHT31;54672;46.096;14.470;2022-07-06T03:48:53;19.00;88.46
67868;SHT31;54672;46.096;14.470;2022-07-06T03:51:19;18.57;89.44
67868;SHT31;54672;46.096;14.470;2022-07-06T03:53:44;18.13;90.25
67868;SHT31;54672;46.096;14.470;2022-07-06T03:56:10;17.96;92.29
67868;SHT31;54672;46.096;14.470;2022-07-06T03:58:54;17.82;92.01
67868;SHT31;54672;46.096;14.470;2022-07-06T04:01:20;17.78;92.18
67868;SHT31;54672;46.096;14.470;2022-07-06T04:03:45;17.74;92.28
67868;SHT31;54672;46.096;14.470;2022-07-06T04:06:11;17.63;92.00
67868;SHT31;54672;46.096;14.470;2022-07-06T04:08:36;17.72;92.30
67868;SHT31;54672;46.096;14.470;2022-07-06T04:11:02;18.32;89.91
67868;SHT31;54672;46.096;14.470;2022-07-06T04:13:28;18.13;90.75
67868;SHT31;54672;46.096;14.470;2022-07-06T04:15:53;18.37;90.78
67868;SHT31;54672;46.096;14.470;2022-07-06T04:18:18;18.93;87.29
67868;SHT31;54672;46.096;14.470;2022-07-06T04:20:44;19.33;85.46
67868;SHT31;54672;46.096;14.470;2022-07-06T04:23:09;19.67;85.31
67868;SHT31;54672;46.096;14.470;2022-07-06T04:25:35;19.65;85.77
67868;SHT31;54672;46.096;14.470;2022-07-06T04:28:00;19.77;85.29
67868;SHT31;54672;46.096;14.470;2022-07-06T04:30:26;19.38;85.96
67868;SHT31;54672;46.096;14.470;2022-07-06T04:32:51;19.21;86.09
67868;SHT31;54672;46.096;14.470;2022-07-06T04:35:17;18.50;87.29
67868;SHT31;54672;46.096;14.470;2022-07-06T04:37:42;18.52;87.25
67868;SHT31;54672;46.096;14.470;2022-07-06T04:40:11;18.50;87.47
67868;SHT31;54672;46.096;14.470;2022-07-06T04:42:37;18.33;87.75
67868;SHT31;54672;46.096;14.470;2022-07-06T04:45:03;18.43;87.22
67868;SHT31;54672;46.096;14.470;2022-07-06T04:47:28;18.19;88.22
67868;SHT31;54672;46.096;14.470;2022-07-06T04:49:54;18.05;87.72
67868;SHT31;54672;46.096;14.470;2022-07-06T04:52:19;18.05;88.31
67868;SHT31;54672;46.096;14.470;2022-07-06T04:54:45;17.93;87.62
67868;SHT31;54672;46.096;14.470;2022-07-06T04:57:10;17.93;88.32
67868;SHT31;54672;46.096;14.470;2022-07-06T04:59:36;17.85;88.62
67868;SHT31;54672;46.096;14.470;2022-07-06T05:02:01;17.85;88.97
67868;SHT31;54672;46.096;14.470;2022-07-06T05:04:27;17.82;89.19
67868;SHT31;54672;46.096;14.470;2022-07-06T05:06:52;17.88;89.52
67868;SHT31;54672;46.096;14.470;2022-07-06T05:09:17;17.82;89.80
67868;SHT31;54672;46.096;14.470;2022-07-06T05:11:43;17.89;89.19
67868;SHT31;54672;46.096;14.470;2022-07-06T05:14:09;18.03;89.04
67868;SHT31;54672;46.096;14.470;2022-07-06T05:16:35;18.34;87.20
67868;SHT31;54672;46.096;14.470;2022-07-06T05:19:01;19.32;83.81
67868;SHT31;54672;46.096;14.470;2022-07-06T05:21:26;20.71;77.94
67868;SHT31;54672;46.096;14.470;2022-07-06T05:23:52;20.47;78.47
67868;SHT31;54672;46.096;14.470;2022-07-06T05:26:17;21.71;73.79
67868;SHT31;54672;46.096;14.470;2022-07-06T05:28:43;23.48;68.86
67868;SHT31;54672;46.096;14.470;2022-07-06T05:31:08;24.00;66.03
67868;SHT31;54672;46.096;14.470;2022-07-06T05:33:34;24.78;63.17
67868;SHT31;54672;46.096;14.470;2022-07-06T05:35:59;24.09;64.15
67868;SHT31;54672;46.096;14.470;2022-07-06T05:38:25;25.01;61.10
67868;SHT31;54672;46.096;14.470;2022-07-06T05:40:51;23.66;65.36
67868;SHT31;54672;46.096;14.470;2022-07-06T05:43:17;24.24;64.34
67868;SHT31;54672;46.096;14.470;2022-07-06T05:45:42;25.74;59.08
67868;SHT31;54672;46.096;14.470;2022-07-06T05:48:08;25.86;58.36
67868;SHT31;54672;46.096;14.470;2022-07-06T05:50:52;26.85;56.15
67868;SHT31;54672;46.096;14.470;2022-07-06T05:53:18;27.40;53.76
67868;SHT31;54672;46.096;14.470;2022-07-06T05:55:43;28.42;51.55
67868;SHT31;54672;46.096;14.470;2022-07-06T05:58:09;25.77;57.08
67868;SHT31;54672;46.096;14.470;2022-07-06T06:00:34;24.36;62.46
67868;SHT31;54672;46.096;14.470;2022-07-06T06:03:01;26.29;56.27
67868;SHT31;54672;46.096;14.470;2022-07-06T06:05:26;25.22;58.24
67868;SHT31;54672;46.096;14.470;2022-07-06T06:07:52;27.40;53.93
67868;SHT31;54672;46.096;14.470;2022-07-06T06:10:19;26.45;52.34
67868;SHT31;54672;46.096;14.470;2022-07-06T06:12:45;28.15;48.96
67868;SHT31;54672;46.096;14.470;2022-07-06T06:15:11;29.18;45.83
67868;SHT31;54672;46.096;14.470;2022-07-06T06:17:37;30.92;42.34
67868;SHT31;54672;46.096;14.470;2022-07-06T06:20:04;29.96;42.81
67868;SHT31;54672;46.096;14.470;2022-07-06T06:22:32;30.68;43.18
67868;SHT31;54672;46.096;14.470;2022-07-06T06:25:08;31.70;39.76
67868;SHT31;54672;46.096;14.470;2022-07-06T06:27:34;31.33;40.94
67868;SHT31;54672;46.096;14.470;2022-07-06T06:29:59;31.77;40.72
67868;SHT31;54672;46.096;14.470;2022-07-06T06:32:24;30.28;42.08
67868;SHT31;54672;46.096;14.470;2022-07-06T06:34:50;31.64;41.47
67868;SHT31;54672;46.096;14.470;2022-07-06T06:37:15;32.79;42.56
67868;SHT31;54672;46.096;14.470;2022-07-06T06:39:41;33.50;41.07
67868;SHT31;54672;46.096;14.470;2022-07-06T06:42:07;33.98;40.32
67868;SHT31;54672;46.096;14.470;2022-07-06T06:44:32;33.24;41.41
67868;SHT31;54672;46.096;14.470;2022-07-06T06:46:58;32.96;42.57
67868;SHT31;54672;46.096;14.470;2022-07-06T06:49:23;34.26;39.91
67868;SHT31;54672;46.096;14.470;2022-07-06T06:51:49;34.08;38.98
67868;SHT31;54672;46.096;14.470;2022-07-06T06:54:14;33.98;40.45
67868;SHT31;54672;46.096;14.470;2022-07-06T06:56:39;33.68;41.55
67868;SHT31;54672;46.096;14.470;2022-07-06T06:59:05;33.64;42.35
67868;SHT31;54672;46.096;14.470;2022-07-06T07:01:30;34.02;41.13
67868;SHT31;54672;46.096;14.470;2022-07-06T07:03:58;33.84;41.02
67868;SHT31;54672;46.096;14.470;2022-07-06T07:06:24;34.09;41.74
67868;SHT31;54672;46.096;14.470;2022-07-06T07:08:50;34.60;40.13
67868;SHT31;54672;46.096;14.470;2022-07-06T07:11:15;34.59;40.29
67868;SHT31;54672;46.096;14.470;2022-07-06T07:13:41;34.36;41.39
67868;SHT31;54672;46.096;14.470;2022-07-06T07:16:06;34.43;40.98
67868;SHT31;54672;46.096;14.470;2022-07-06T07:18:32;34.22;40.96
67868;SHT31;54672;46.096;14.470;2022-07-06T07:20:57;33.97;41.15
67868;SHT31;54672;46.096;14.470;2022-07-06T07:23:23;33.74;42.06
67868;SHT31;54672;46.096;14.470;2022-07-06T07:25:48;33.60;41.33
67868;SHT31;54672;46.096;14.470;2022-07-06T07:28:14;32.80;43.42
67868;SHT31;54672;46.096;14.470;2022-07-06T07:30:39;32.10;44.84
67868;SHT31;54672;46.096;14.470;2022-07-06T07:33:05;32.28;44.60
67868;SHT31;54672;46.096;14.470;2022-07-06T07:35:31;33.06;43.49
67868;SHT31;54672;46.096;14.470;2022-07-06T07:37:56;33.75;40.64
67868;SHT31;54672;46.096;14.470;2022-07-06T07:40:22;33.33;41.54
67868;SHT31;54672;46.096;14.470;2022-07-06T07:42:48;33.19;40.99
67868;SHT31;54672;46.096;14.470;2022-07-06T07:45:13;33.29;41.18
67868;SHT31;54672;46.096;14.470;2022-07-06T07:47:39;32.99;40.44
67868;SHT31;54672;46.096;14.470;2022-07-06T07:50:05;33.23;39.86
67868;SHT31;54672;46.096;14.470;2022-07-06T07:52:31;33.40;40.69
67868;SHT31;54672;46.096;14.470;2022-07-06T07:54:56;33.75;40.19
67868;SHT31;54672;46.096;14.470;2022-07-06T07:57:22;33.71;40.26
67868;SHT31;54672;46.096;14.470;2022-07-06T07:59:47;32.78;42.34
67868;SHT31;54672;46.096;14.470;2022-07-06T08:02:13;33.40;40.91
67868;SHT31;54672;46.096;14.470;2022-07-06T08:04:38;32.95;41.38
67868;SHT31;54672;46.096;14.470;2022-07-06T08:07:04;32.76;42.47
67868;SHT31;54672;46.096;14.470;2022-07-06T08:09:29;33.04;41.52
67868;SHT31;54672;46.096;14.470;2022-07-06T08:11:55;33.64;41.40
67868;SHT31;54672;46.096;14.470;2022-07-06T08:14:20;33.57;39.92
67868;SHT31;54672;46.096;14.470;2022-07-06T08:16:46;33.02;42.09
67868;SHT31;54672;46.096;14.470;2022-07-06T08:19:11;32.93;41.26
67868;SHT31;54672;46.096;14.470;2022-07-06T08:21:40;33.53;41.13
67868;SHT31;54672;46.096;14.470;2022-07-06T08:24:06;33.07;41.43
67868;SHT31;54672;46.096;14.470;2022-07-06T08:26:31;33.31;41.27
67868;SHT31;54672;46.096;14.470;2022-07-06T08:28:57;32.66;41.99
67868;SHT31;54672;46.096;14.470;2022-07-06T08:31:23;32.72;41.87
67868;SHT31;54672;46.096;14.470;2022-07-06T08:33:48;32.71;41.77
67868;SHT31;54672;46.096;14.470;2022-07-06T08:36:14;32.92;41.04
67868;SHT31;54672;46.096;14.470;2022-07-06T08:38:40;32.75;41.39
67868;SHT31;54672;46.096;14.470;2022-07-06T08:41:05;32.61;41.75
67868;SHT31;54672;46.096;14.470;2022-07-06T08:43:33;32.65;41.33
67868;SHT31;54672;46.096;14.470;2022-07-06T08:45:59;31.25;40.34
67868;SHT31;54672;46.096;14.470;2022-07-06T08:48:27;30.81;40.43
67868;SHT31;54672;46.096;14.470;2022-07-06T08:50:54;30.48;40.88
67868;SHT31;54672;46.096;14.470;2022-07-06T08:53:20;30.45;41.20
67868;SHT31;54672;46.096;14.470;2022-07-06T08:55:47;30.81;40.71
67868;SHT31;54672;46.096;14.470;2022-07-06T08:58:13;31.37;41.04
67868;SHT31;54672;46.096;14.470;2022-07-06T09:00:39;31.76;42.14
67868;SHT31;54672;46.096;14.470;2022-07-06T09:03:06;31.76;40.10
67868;SHT31;54672;46.096;14.470;2022-07-06T09:05:32;31.36;41.08
67868;SHT31;54672;46.096;14.470;2022-07-06T09:07:59;31.93;40.87
67868;SHT31;54672;46.096;14.470;2022-07-06T09:10:24;32.00;40.63
67868;SHT31;54672;46.096;14.470;2022-07-06T09:12:51;32.04;41.11
67868;SHT31;54672;46.096;14.470;2022-07-06T09:15:17;32.45;40.60
67868;SHT31;54672;46.096;14.470;2022-07-06T09:17:43;32.08;41.50
67868;SHT31;54672;46.096;14.470;2022-07-06T09:20:13;32.31;40.79
67868;SHT31;54672;46.096;14.470;2022-07-06T09:22:39;32.78;40.00
67868;SHT31;54672;46.096;14.470;2022-07-06T09:27:31;33.03;39.10
67868;SHT31;54672;46.096;14.470;2022-07-06T09:30:00;32.96;39.84
67868;SHT31;54672;46.096;14.470;2022-07-06T09:32:28;33.03;37.90
67868;SHT31;54672;46.096;14.470;2022-07-06T09:34:54;33.33;37.70
67868;SHT31;54672;46.096;14.470;2022-07-06T09:37:21;32.80;37.90
67868;SHT31;54672;46.096;14.470;2022-07-06T09:39:48;32.11;38.03
67868;SHT31;54672;46.096;14.470;2022-07-06T09:42:13;30.96;39.77
67868;SHT31;54672;46.096;14.470;2022-07-06T09:44:40;29.46;40.78
67868;SHT31;54672;46.096;14.470;2022-07-06T09:47:07;28.80;42.17
67868;SHT31;54672;46.096;14.470;2022-07-06T09:49:34;28.59;41.34
67868;SHT31;54672;46.096;14.470;2022-07-06T09:52:05;28.55;41.78
67868;SHT31;54672;46.096;14.470;2022-07-06T09:54:33;28.55;44.97
67868;SHT31;54672;46.096;14.470;2022-07-06T09:56:59;28.78;45.26
67868;SHT31;54672;46.096;14.470;2022-07-06T09:59:31;28.90;46.24
67868;SHT31;54672;46.096;14.470;2022-07-06T10:02:02;29.12;45.30
67868;SHT31;54672;46.096;14.470;2022-07-06T10:04:29;29.46;43.48
67868;SHT31;54672;46.096;14.470;2022-07-06T10:06:56;29.70;40.34
67868;SHT31;54672;46.096;14.470;2022-07-06T10:09:23;29.95;40.98
67868;SHT31;54672;46.096;14.470;2022-07-06T10:11:53;29.62;40.59
67868;SHT31;54672;46.096;14.470;2022-07-06T10:14:23;28.84;41.34
67868;SHT31;54672;46.096;14.470;2022-07-06T10:16:50;29.24;42.21
67868;SHT31;54672;46.096;14.470;2022-07-06T10:19:17;29.45;41.69
67868;SHT31;54672;46.096;14.470;2022-07-06T10:21:44;29.12;41.10
67868;SHT31;54672;46.096;14.470;2022-07-06T10:24:11;29.11;40.41
67868;SHT31;54672;46.096;14.470;2022-07-06T10:26:37;28.53;40.49
67868;SHT31;54672;46.096;14.470;2022-07-06T10:29:04;28.56;40.17
67868;SHT31;54672;46.096;14.470;2022-07-06T10:31:31;28.83;40.52
67868;SHT31;54672;46.096;14.470;2022-07-06T10:33:59;29.10;39.14
67868;SHT31;54672;46.096;14.470;2022-07-06T10:36:27;29.15;39.30
67868;SHT31;54672;46.096;14.470;2022-07-06T10:38:53;29.46;38.84
67868;SHT31;54672;46.096;14.470;2022-07-06T10:41:30;29.41;39.26
67868;SHT31;54672;46.096;14.470;2022-07-06T10:43:56;29.76;38.07
67868;SHT31;54672;46.096;14.470;2022-07-06T10:46:24;29.89;37.24
67868;SHT31;54672;46.096;14.470;2022-07-06T10:48:52;30.07;39.04
67868;SHT31;54672;46.096;14.470;2022-07-06T10:51:26;30.37;38.35
67868;SHT31;54672;46.096;14.470;2022-07-06T10:54:00;30.26;35.11
67868;SHT31;54672;46.096;14.470;2022-07-06T10:56:47;30.21;34.33
67868;SHT31;54672;46.096;14.470;2022-07-06T10:59:18;29.96;35.27
67868;SHT31;54672;46.096;14.470;2022-07-06T11:04:45;29.39;37.59
67868;SHT31;54672;46.096;14.470;2022-07-06T11:07:16;28.84;36.48
67868;SHT31;54672;46.096;14.470;2022-07-06T11:09:57;29.18;37.17
67868;SHT31;54672;46.096;14.470;2022-07-06T11:12:23;29.55;35.97
67868;SHT31;54672;46.096;14.470;2022-07-06T11:14:51;29.87;36.77
67868;SHT31;54672;46.096;14.470;2022-07-06T11:17:17;30.03;35.40
67868;SHT31;54672;46.096;14.470;2022-07-06T11:20:09;30.31;35.09
67868;SHT31;54672;46.096;14.470;2022-07-06T11:22:36;30.72;34.32
67868;SHT31;54672;46.096;14.470;2022-07-06T11:25:03;30.88;34.21
67868;SHT31;54672;46.096;14.470;2022-07-06T11:27:28;31.00;35.48
67868;SHT31;54672;46.096;14.470;2022-07-06T11:29:54;30.89;34.26
67868;SHT31;54672;46.096;14.470;2022-07-06T11:32:25;30.68;35.07
67868;SHT31;54672;46.096;14.470;2022-07-06T11:34:51;30.38;35.67
67868;SHT31;54672;46.096;14.470;2022-07-06T11:37:17;28.90;37.43
67868;SHT31;54672;46.096;14.470;2022-07-06T11:39:45;28.96;37.62
67868;SHT31;54672;46.096;14.470;2022-07-06T11:42:12;29.56;36.67
67868;SHT31;54672;46.096;14.470;2022-07-06T11:44:39;30.31;36.60
67868;SHT31;54672;46.096;14.470;2022-07-06T11:47:05;30.75;34.39
67868;SHT31;54672;46.096;14.470;2022-07-06T11:49:32;31.23;34.55
67868;SHT31;54672;46.096;14.470;2022-07-06T11:51:58;31.22;35.00
67868;SHT31;54672;46.096;14.470;2022-07-06T11:54:24;30.20;35.97
67868;SHT31;54672;46.096;14.470;2022-07-06T11:56:57;30.17;35.06
67868;SHT31;54672;46.096;14.470;2022-07-06T11:59:29;30.48;35.99
67868;SHT31;54672;46.096;14.470;2022-07-06T12:02:06;30.06;34.77
67868;SHT31;54672;46.096;14.470;2022-07-06T12:04:33;29.41;36.52
67868;SHT31;54672;46.096;14.470;2022-07-06T12:07:00;29.39;35.89
67868;SHT31;54672;46.096;14.470;2022-07-06T12:09:30;29.69;36.20
67868;SHT31;54672;46.096;14.470;2022-07-06T12:11:55;29.95;35.48
67868;SHT31;54672;46.096;14.470;2022-07-06T12:14:21;29.97;35.28
67868;SHT31;54672;46.096;14.470;2022-07-06T12:16:48;30.02;34.70
67868;SHT31;54672;46.096;14.470;2022-07-06T12:19:14;29.82;34.55
67868;SHT31;54672;46.096;14.470;2022-07-06T12:21:48;29.67;35.21
67868;SHT31;54672;46.096;14.470;2022-07-06T12:24:18;29.34;34.69
67868;SHT31;54672;46.096;14.470;2022-07-06T12:26:44;29.18;35.48
67868;SHT31;54672;46.096;14.470;2022-07-06T12:29:12;29.21;35.40
67868;SHT31;54672;46.096;14.470;2022-07-06T12:34:16;29.51;34.89
67868;SHT31;54672;46.096;14.470;2022-07-06T12:39:17;29.97;34.10
67868;SHT31;54672;46.096;14.470;2022-07-06T12:44:20;29.51;33.62
67868;SHT31;54672;46.096;14.470;2022-07-06T12:46:48;29.34;34.67
67868;SHT31;54672;46.096;14.470;2022-07-06T12:49:18;29.48;34.09
67868;SHT31;54672;46.096;14.470;2022-07-06T12:51:58;29.49;35.73
67868;SHT31;54672;46.096;14.470;2022-07-06T12:54:35;29.51;34.77
67868;SHT31;54672;46.096;14.470;2022-07-06T12:59:33;30.17;33.56
67868;SHT31;54672;46.096;14.470;2022-07-06T13:01:59;30.24;33.84
67868;SHT31;54672;46.096;14.470;2022-07-06T13:04:30;30.71;34.16
67868;SHT31;54672;46.096;14.470;2022-07-06T13:06:58;31.44;31.86
67868;SHT31;54672;46.096;14.470;2022-07-06T13:09:24;31.83;31.17
67868;SHT31;54672;46.096;14.470;2022-07-06T13:11:50;32.20;31.38
67868;SHT31;54672;46.096;14.470;2022-07-06T13:14:16;31.97;30.69
67868;SHT31;54672;46.096;14.470;2022-07-06T13:16:43;31.90;31.59
67868;SHT31;54672;46.096;14.470;2022-07-06T13:19:09;31.81;32.08
67868;SHT31;54672;46.096;14.470;2022-07-06T13:21:34;31.97;30.71
67868;SHT31;54672;46.096;14.470;2022-07-06T13:24:00;31.73;31.37
67868;SHT31;54672;46.096;14.470;2022-07-06T13:26:26;31.66;31.35
67868;SHT31;54672;46.096;14.470;2022-07-06T13:28:51;31.44;31.88
67868;SHT31;54672;46.096;14.470;2022-07-06T13:31:17;31.32;32.15
67868;SHT31;54672;46.096;14.470;2022-07-06T13:33:42;31.30;33.29
67868;SHT31;54672;46.096;14.470;2022-07-06T13:36:08;31.21;32.03
67868;SHT31;54672;46.096;14.470;2022-07-06T13:38:33;30.76;31.72
67868;SHT31;54672;46.096;14.470;2022-07-06T13:40:59;30.57;33.27
67868;SHT31;54672;46.096;14.470;2022-07-06T13:43:24;30.54;32.67
67868;SHT31;54672;46.096;14.470;2022-07-06T13:45:49;30.40;32.78
67868;SHT31;54672;46.096;14.470;2022-07-06T13:48:15;30.12;33.51
67868;SHT31;54672;46.096;14.470;2022-07-06T13:50:40;29.82;33.66
67868;SHT31;54672;46.096;14.470;2022-07-06T13:53:06;29.85;33.18
67868;SHT31;54672;46.096;14.470;2022-07-06T13:55:32;29.79;33.21
67868;SHT31;54672;46.096;14.470;2022-07-06T13:57:58;29.77;33.58
67868;SHT31;54672;46.096;14.470;2022-07-06T14:00:24;29.77;34.42
67868;SHT31;54672;46.096;14.470;2022-07-06T14:02:50;29.69;33.50
67868;SHT31;54672;46.096;14.470;2022-07-06T14:05:16;29.55;34.07
67868;SHT31;54672;46.096;14.470;2022-07-06T14:07:42;29.51;32.99
67868;SHT31;54672;46.096;14.470;2022-07-06T14:10:08;29.41;33.09
67868;SHT31;54672;46.096;14.470;2022-07-06T14:12:34;29.39;33.99
67868;SHT31;54672;46.096;14.470;2022-07-06T14:14:59;29.11;32.90
67868;SHT31;54672;46.096;14.470;2022-07-06T14:17:25;29.21;33.42
67868;SHT31;54672;46.096;14.470;2022-07-06T14:19:51;29.51;33.70
67868;SHT31;54672;46.096;14.470;2022-07-06T14:22:17;29.70;33.57
67868;SHT31;54672;46.096;14.470;2022-07-06T14:24:43;29.35;33.42
67868;SHT31;54672;46.096;14.470;2022-07-06T14:27:08;29.49;33.96
67868;SHT31;54672;46.096;14.470;2022-07-06T14:29:34;29.51;33.23
67868;SHT31;54672;46.096;14.470;2022-07-06T14:31:59;29.38;33.48
67868;SHT31;54672;46.096;14.470;2022-07-06T14:34:25;29.44;33.73
67868;SHT31;54672;46.096;14.470;2022-07-06T14:36:51;29.44;34.06
67868;SHT31;54672;46.096;14.470;2022-07-06T14:39:16;29.46;32.69
67868;SHT31;54672;46.096;14.470;2022-07-06T14:41:42;29.36;32.14
67868;SHT31;54672;46.096;14.470;2022-07-06T14:44:07;29.26;33.02
67868;SHT31;54672;46.096;14.470;2022-07-06T14:46:33;29.34;33.45
67868;SHT31;54672;46.096;14.470;2022-07-06T14:49:00;29.51;32.90
67868;SHT31;54672;46.096;14.470;2022-07-06T14:51:26;29.28;32.70
67868;SHT31;54672;46.096;14.470;2022-07-06T14:53:51;29.25;33.36
67868;SHT31;54672;46.096;14.470;2022-07-06T14:56:17;29.28;33.66
67868;SHT31;54672;46.096;14.470;2022-07-06T14:58:42;29.11;32.78
67868;SHT31;54672;46.096;14.470;2022-07-06T15:01:08;29.32;33.23
67868;SHT31;54672;46.096;14.470;2022-07-06T15:03:33;29.29;32.17
67868;SHT31;54672;46.096;14.470;2022-07-06T15:05:59;29.17;32.29
67868;SHT31;54672;46.096;14.470;2022-07-06T15:08:24;29.19;31.89
67868;SHT31;54672;46.096;14.470;2022-07-06T15:10:50;29.26;32.75
67868;SHT31;54672;46.096;14.470;2022-07-06T15:13:16;29.26;32.22
67868;SHT31;54672;46.096;14.470;2022-07-06T15:15:41;29.32;32.40
67868;SHT31;54672;46.096;14.470;2022-07-06T15:18:07;29.65;33.11
67868;SHT31;54672;46.096;14.470;2022-07-06T15:20:32;29.51;32.04
67868;SHT31;54672;46.096;14.470;2022-07-06T15:22:58;29.52;33.12
67868;SHT31;54672;46.096;14.470;2022-07-06T15:25:24;29.45;32.85